createdAt,value
2022-09-23T00:00:09.841Z,97402.88
2022-09-23T00:02:36.867Z,97405.78
2022-09-23T00:05:03.596Z,97365.25
2022-09-23T00:07:30.705Z,97392.63
2022-09-23T00:09:57.325Z,97399.25
2022-09-23T00:12:26.729Z,97371.13
2022-09-23T00:14:53.423Z,97365.78
2022-09-23T00:17:20.026Z,97383.63
2022-09-23T00:19:46.674Z,97389.06
2022-09-23T00:22:13.243Z,97398.69
2022-09-23T00:24:39.830Z,97371.06
2022-09-23T00:27:06.412Z,97392.50
2022-09-23T00:29:33.193Z,97383.44
2022-09-23T00:31:59.824Z,97380.03
2022-09-23T00:34:26.549Z,97368.38
2022-09-23T00:36:53.180Z,97385.44
2022-09-23T00:39:19.842Z,97354.72
2022-09-23T00:41:46.462Z,97360.72
2022-09-23T00:44:42.466Z,97371.59
2022-09-23T00:47:32.231Z,97381.31
2022-09-23T00:50:12.534Z,97354.69
2022-09-23T00:52:39.193Z,97351.97
2022-09-23T00:55:08.639Z,97369.69
2022-09-23T00:57:35.491Z,97371.81
2022-09-23T01:00:02.473Z,97371.34
2022-09-23T01:02:29.162Z,97379.19
2022-09-23T01:04:55.720Z,97337.97
2022-09-23T01:07:22.515Z,97342.16
2022-09-23T01:09:49.301Z,97370.41
2022-09-23T01:12:34.340Z,97347.63
2022-09-23T01:15:18.592Z,97347.28
2022-09-23T01:18:01.571Z,97340.00
2022-09-23T01:20:41.539Z,97335.34
2022-09-23T01:23:45.491Z,97342.19
2022-09-23T01:26:44.096Z,97338.84
2022-09-23T01:29:28.275Z,97337.22
2022-09-23T01:32:04.007Z,97351.59
2022-09-23T01:34:54.957Z,97327.06
2022-09-23T01:37:26.843Z,97336.19
2022-09-23T01:40:01.880Z,97321.47
2022-09-23T01:42:44.453Z,97324.97
2022-09-23T01:45:17.081Z,97295.22
2022-09-23T01:48:03.065Z,97311.00
2022-09-23T01:50:30.785Z,97289.13
2022-09-23T01:53:00.447Z,97313.56
2022-09-23T01:55:29.288Z,97298.25
2022-09-23T01:57:59.359Z,97317.13
2022-09-23T02:00:25.932Z,97314.00
2022-09-23T02:02:55.001Z,97328.78
2022-09-23T02:05:24.796Z,97325.56
2022-09-23T02:07:59.965Z,97301.75
2022-09-23T02:10:38.671Z,97339.13
2022-09-23T02:13:17.938Z,97320.50
2022-09-23T02:15:48.014Z,97313.75
2022-09-23T02:18:26.353Z,97303.38
2022-09-23T02:20:55.949Z,97310.91
2022-09-23T02:23:30.523Z,97325.94
2022-09-23T02:25:59.892Z,97320.50
2022-09-23T02:28:34.465Z,97308.22
2022-09-23T02:31:10.820Z,97324.88
2022-09-23T02:33:41.749Z,97269.13
2022-09-23T02:36:49.108Z,97315.28
2022-09-23T02:39:15.788Z,97325.34
2022-09-23T02:42:08.765Z,97310.19
2022-09-23T02:44:35.369Z,97313.81
2022-09-23T02:47:01.943Z,97297.25
2022-09-23T02:49:29.530Z,97291.81
2022-09-23T02:51:56.743Z,97294.69
2022-09-23T02:54:26.128Z,97301.06
2022-09-23T02:56:53.155Z,97309.75
2022-09-23T02:59:20.987Z,97304.19
2022-09-23T03:02:12.484Z,97286.50
2022-09-23T03:04:45.152Z,97293.53
2022-09-23T03:07:25.544Z,97285.47
2022-09-23T03:10:13.564Z,97277.69
2022-09-23T03:13:08.753Z,97239.31
2022-09-23T03:15:57.042Z,97289.25
2022-09-23T03:18:40.745Z,97294.00
2022-09-23T03:21:19.884Z,97268.09
2022-09-23T03:23:46.582Z,97290.63
2022-09-23T03:26:28.826Z,97272.72
2022-09-23T03:28:55.443Z,97278.41
2022-09-23T03:31:22.594Z,97285.66
2022-09-23T03:33:55.005Z,97272.59
2022-09-23T03:36:27.345Z,97287.28
2022-09-23T03:39:01.324Z,97270.28
2022-09-23T03:41:37.445Z,97273.06
2022-09-23T03:44:04.066Z,97266.72
2022-09-23T03:46:30.641Z,97260.19
2022-09-23T03:48:59.921Z,97271.41
2022-09-23T03:51:26.693Z,97275.84
2022-09-23T03:53:53.711Z,97268.66
2022-09-23T03:56:20.342Z,97268.22
2022-09-23T03:58:46.995Z,97255.59
2022-09-23T04:01:13.682Z,97292.44
2022-09-23T04:03:40.602Z,97255.69
2022-09-23T04:06:07.205Z,97258.47
2022-09-23T04:08:34.016Z,97286.41
2022-09-23T04:11:03.729Z,97253.28
2022-09-23T04:13:30.656Z,97258.69
2022-09-23T04:15:57.386Z,97261.78
2022-09-23T04:18:24.131Z,97262.03
2022-09-23T04:20:50.730Z,97257.63
2022-09-23T04:23:17.279Z,97253.03
2022-09-23T04:25:45.868Z,97255.56
2022-09-23T04:28:12.487Z,97278.06
2022-09-23T04:30:42.952Z,97251.59
2022-09-23T04:33:10.553Z,97275.09
2022-09-23T04:35:40.157Z,97252.56
2022-09-23T04:38:07.140Z,97262.59
2022-09-23T04:40:33.998Z,97239.25
2022-09-23T04:43:00.660Z,97267.44
2022-09-23T04:45:27.345Z,97274.47
2022-09-23T04:47:54.245Z,97265.56
2022-09-23T04:50:21.221Z,97237.41
2022-09-23T04:52:47.780Z,97264.19
2022-09-23T04:55:14.330Z,97278.53
2022-09-23T04:57:40.944Z,97268.16
2022-09-23T05:00:08.267Z,97265.22
2022-09-23T05:02:34.961Z,97273.53
2022-09-23T05:05:01.636Z,97260.81
2022-09-23T05:07:28.238Z,97255.41
2022-09-23T05:09:54.835Z,97251.56
2022-09-23T05:12:21.528Z,97272.59
2022-09-23T05:14:48.059Z,97276.78
2022-09-23T05:17:14.577Z,97270.00
2022-09-23T05:19:41.201Z,97256.34
2022-09-23T05:22:07.860Z,97286.75
2022-09-23T05:24:34.439Z,97282.59
2022-09-23T05:27:01.114Z,97263.44
2022-09-23T05:29:27.713Z,97282.16
2022-09-23T05:31:54.440Z,97282.41
2022-09-23T05:34:21.066Z,97260.19
2022-09-23T05:36:47.584Z,97287.34
2022-09-23T05:39:14.290Z,97285.59
2022-09-23T05:41:41.039Z,97289.88
2022-09-23T05:44:10.013Z,97260.44
2022-09-23T05:46:36.764Z,97272.31
2022-09-23T05:49:03.781Z,97290.81
2022-09-23T05:51:31.385Z,97288.97
2022-09-23T05:53:58.642Z,97260.56
2022-09-23T05:56:26.601Z,97281.34
2022-09-23T05:58:53.969Z,97277.44
2022-09-23T06:01:21.805Z,97278.94
2022-09-23T06:03:48.780Z,97277.91
2022-09-23T06:06:16.062Z,97282.78
2022-09-23T06:08:42.932Z,97287.53
2022-09-23T06:11:09.629Z,97292.50
2022-09-23T06:13:37.369Z,97277.81
2022-09-23T06:16:16.534Z,97277.59
2022-09-23T06:18:44.330Z,97280.34
2022-09-23T06:21:16.494Z,97261.38
2022-09-23T06:23:43.469Z,97267.28
2022-09-23T06:26:11.369Z,97268.09
2022-09-23T06:28:38.900Z,97271.00
2022-09-23T06:31:13.764Z,97263.25
2022-09-23T06:33:43.767Z,97272.84
2022-09-23T06:36:10.848Z,97261.03
2022-09-23T06:38:44.293Z,97269.34
2022-09-23T06:41:11.522Z,97277.31
2022-09-23T06:43:38.157Z,97258.84
2022-09-23T06:46:05.409Z,97289.06
2022-09-23T06:48:33.136Z,97258.31
2022-09-23T06:50:59.885Z,97273.78
2022-09-23T06:53:26.433Z,97299.59
2022-09-23T06:56:00.090Z,97265.44
2022-09-23T06:58:26.986Z,97265.78
2022-09-23T07:00:53.981Z,97251.97
2022-09-23T07:03:20.614Z,97280.59
2022-09-23T07:05:47.236Z,97253.69
2022-09-23T07:08:13.893Z,97266.28
2022-09-23T07:10:40.512Z,97244.97
2022-09-23T07:13:07.201Z,97233.34
2022-09-23T07:15:33.787Z,97299.44
2022-09-23T07:18:00.562Z,97296.69
2022-09-23T07:20:27.285Z,97267.66
2022-09-23T07:22:53.929Z,97268.50
2022-09-23T07:25:20.566Z,97264.66
2022-09-23T07:27:47.353Z,97279.06
2022-09-23T07:30:24.006Z,97285.91
2022-09-23T07:32:51.971Z,97275.03
2022-09-23T07:35:21.725Z,97273.88
2022-09-23T07:37:50.291Z,97257.63
2022-09-23T07:40:16.959Z,97255.66
2022-09-23T07:42:43.596Z,97255.28
2022-09-23T07:45:10.269Z,97273.56
2022-09-23T07:47:36.894Z,97281.25
2022-09-23T07:50:03.639Z,97248.59
2022-09-23T07:52:30.306Z,97285.56
2022-09-23T07:54:56.945Z,97250.44
2022-09-23T07:57:23.653Z,97250.41
2022-09-23T07:59:50.796Z,97280.63
2022-09-23T08:02:17.452Z,97284.44
2022-09-23T08:04:44.113Z,97266.38
2022-09-23T08:07:12.310Z,97290.97
2022-09-23T08:09:40.786Z,97251.78
2022-09-23T08:12:15.938Z,97274.25
2022-09-23T08:14:42.807Z,97261.00
2022-09-23T08:17:09.562Z,97281.31
2022-09-23T08:19:37.842Z,97276.66
2022-09-23T08:22:04.494Z,97274.56
2022-09-23T08:24:31.954Z,97267.59
2022-09-23T08:26:58.569Z,97266.94
2022-09-23T08:29:26.098Z,97250.31
2022-09-23T08:31:53.056Z,97262.72
2022-09-23T08:34:20.341Z,97252.59
2022-09-23T08:36:47.179Z,97252.72
2022-09-23T08:39:17.711Z,97247.81
2022-09-23T08:41:59.301Z,97273.84
2022-09-23T08:44:48.901Z,97274.94
2022-09-23T08:47:41.937Z,97249.63
2022-09-23T08:50:11.291Z,97274.00
2022-09-23T08:52:51.573Z,97245.75
2022-09-23T08:55:18.449Z,97260.59
2022-09-23T08:58:26.650Z,97257.94
2022-09-23T09:01:22.657Z,97257.72
2022-09-23T09:03:52.019Z,97240.00
2022-09-23T09:06:27.880Z,97235.94
2022-09-23T09:09:01.603Z,97238.03
2022-09-23T09:11:34.262Z,97252.19
2022-09-23T09:14:22.478Z,97244.69
2022-09-23T09:17:01.636Z,97221.03
2022-09-23T09:19:49.925Z,97225.25
2022-09-23T09:22:38.729Z,97239.44
2022-09-23T09:25:14.403Z,97231.56
2022-09-23T09:27:41.166Z,97240.47
2022-09-23T09:30:12.841Z,97244.91
2022-09-23T09:32:42.887Z,97230.22
2022-09-23T09:35:18.234Z,97210.97
2022-09-23T09:37:46.827Z,97204.34
2022-09-23T09:40:13.801Z,97214.09
2022-09-23T09:42:41.590Z,97214.69
2022-09-23T09:45:13.516Z,97239.75
2022-09-23T09:47:42.256Z,97219.97
2022-09-23T09:50:10.389Z,97202.75
2022-09-23T09:52:43.770Z,97187.06
2022-09-23T09:55:12.994Z,97190.81
2022-09-23T09:58:00.755Z,97221.91
2022-09-23T10:00:27.635Z,97207.50
2022-09-23T10:02:57.938Z,97199.47
2022-09-23T10:05:26.997Z,97185.09
2022-09-23T10:07:53.851Z,97172.00
2022-09-23T10:10:32.453Z,97159.81
2022-09-23T10:13:00.626Z,97197.06
2022-09-23T10:15:29.104Z,97192.81
2022-09-23T10:17:55.765Z,97174.06
2022-09-23T10:20:22.490Z,97172.66
2022-09-23T10:22:49.264Z,97164.03
2022-09-23T10:25:17.660Z,97163.78
2022-09-23T10:27:44.244Z,97158.63
2022-09-23T10:30:25.249Z,97167.47
2022-09-23T10:32:52.611Z,97167.38
2022-09-23T10:35:20.693Z,97169.50
2022-09-23T10:37:52.934Z,97157.09
2022-09-23T10:40:39.321Z,97163.50
2022-09-23T10:43:19.698Z,97152.28
2022-09-23T10:45:49.689Z,97155.25
2022-09-23T10:48:28.285Z,97140.31
2022-09-23T10:50:54.961Z,97145.53
2022-09-23T10:53:34.674Z,97144.63
2022-09-23T10:56:25.485Z,97129.22
2022-09-23T10:58:58.079Z,97124.78
2022-09-23T11:01:35.463Z,97125.06
2022-09-23T11:04:44.540Z,97134.28
2022-09-23T11:07:12.613Z,97135.38
2022-09-23T11:10:29.090Z,97101.03
2022-09-23T11:13:42.660Z,97141.25
2022-09-23T11:16:15.548Z,97126.44
2022-09-23T11:19:19.666Z,97150.97
2022-09-23T11:21:59.436Z,97131.88
2022-09-23T11:24:42.630Z,97128.97
2022-09-23T11:27:27.750Z,97103.97
2022-09-23T11:30:07.675Z,97089.09
2022-09-23T11:32:56.708Z,97099.56
2022-09-23T11:35:28.112Z,97110.13
2022-09-23T11:38:00.847Z,97117.28
2022-09-23T11:40:30.936Z,97127.28
2022-09-23T11:43:02.866Z,97100.47
2022-09-23T11:45:34.683Z,97094.78
2022-09-23T11:48:23.568Z,97112.06
2022-09-23T11:51:17.670Z,97105.00
2022-09-23T11:53:49.869Z,97102.88
2022-09-23T11:56:34.840Z,97092.03
2022-09-23T11:59:11.626Z,97091.81
2022-09-23T12:01:45.389Z,97094.66
2022-09-23T12:04:39.731Z,97104.53
2022-09-23T12:07:20.051Z,97049.16
2022-09-23T12:10:02.779Z,97074.03
2022-09-23T12:12:37.406Z,97081.31
2022-09-23T12:15:09.861Z,97048.47
2022-09-23T12:18:00.875Z,97067.47
2022-09-23T12:20:48.721Z,97059.59
2022-09-23T12:23:47.654Z,97050.38
2022-09-23T12:26:19.507Z,97058.91
2022-09-23T12:28:47.248Z,97048.59
2022-09-23T12:31:17.338Z,97055.16
2022-09-23T12:33:51.145Z,97066.84
2022-09-23T12:36:17.706Z,97052.75
2022-09-23T12:38:49.482Z,97045.16
2022-09-23T12:41:36.249Z,97052.66
2022-09-23T12:44:12.002Z,97050.19
2022-09-23T12:46:45.287Z,97052.00
2022-09-23T12:49:30.162Z,97040.28
2022-09-23T12:52:11.772Z,97031.31
2022-09-23T12:54:40.368Z,97023.69
2022-09-23T12:57:11.018Z,97014.81
2022-09-23T13:00:08.634Z,97011.28
2022-09-23T13:02:43.370Z,97034.03
2022-09-23T13:05:23.395Z,97026.19
2022-09-23T13:07:50.114Z,97011.06
2022-09-23T13:10:53.718Z,97009.38
2022-09-23T13:13:24.685Z,96990.38
2022-09-23T13:15:52.563Z,96996.28
2022-09-23T13:18:19.015Z,97019.25
2022-09-23T13:20:46.029Z,97024.47
2022-09-23T13:23:25.644Z,96995.25
2022-09-23T13:25:54.505Z,96989.81
2022-09-23T13:28:54.520Z,96979.91
2022-09-23T13:31:21.391Z,96987.06
2022-09-23T13:33:53.173Z,96996.63
2022-09-23T13:36:20.056Z,96976.84
2022-09-23T13:38:46.687Z,97025.84
2022-09-23T13:41:18.452Z,96979.69
2022-09-23T13:43:57.657Z,96974.13
2022-09-23T13:46:34.336Z,97005.28
2022-09-23T13:49:00.889Z,96983.91
2022-09-23T13:51:33.064Z,96991.66
2022-09-23T13:54:00.899Z,96979.91
2022-09-23T13:56:29.377Z,97002.03
2022-09-23T13:59:24.121Z,96987.72
2022-09-23T14:01:50.815Z,96965.59
2022-09-23T14:04:26.985Z,96990.59
2022-09-23T14:06:53.805Z,96984.00
2022-09-23T14:09:21.312Z,96990.59
2022-09-23T14:11:48.893Z,96947.53
2022-09-23T14:14:15.585Z,96970.03
2022-09-23T14:16:42.299Z,96951.16
2022-09-23T14:19:17.240Z,96954.91
2022-09-23T14:21:43.875Z,96938.53
2022-09-23T14:24:10.476Z,96948.06
2022-09-23T14:26:37.251Z,96932.19
2022-09-23T14:29:03.898Z,96961.81
2022-09-23T14:31:30.691Z,96941.03
2022-09-23T14:33:57.372Z,96940.34
2022-09-23T14:36:24.034Z,96928.09
2022-09-23T14:38:50.722Z,96950.91
2022-09-23T14:41:20.691Z,96949.50
2022-09-23T14:44:07.634Z,96946.75
2022-09-23T14:46:35.552Z,96933.09
2022-09-23T14:49:11.255Z,96932.97
2022-09-23T14:51:53.432Z,96936.81
2022-09-23T14:54:28.913Z,96917.38
2022-09-23T14:56:56.007Z,96910.72
2022-09-23T14:59:33.860Z,96947.59
2022-09-23T15:02:00.524Z,96925.34
2022-09-23T15:04:29.218Z,96913.00
2022-09-23T15:07:16.077Z,96896.94
2022-09-23T15:09:42.831Z,96914.59
2022-09-23T15:12:14.694Z,96916.00
2022-09-23T15:14:43.505Z,96909.00
2022-09-23T15:17:35.162Z,96901.69
2022-09-23T15:20:17.596Z,96909.25
2022-09-23T15:22:45.645Z,96893.97
2022-09-23T15:25:32.011Z,96896.91
2022-09-23T15:28:01.436Z,96908.06
2022-09-23T15:30:28.419Z,96886.72
2022-09-23T15:32:55.086Z,96901.16
2022-09-23T15:35:23.437Z,96889.94
2022-09-23T15:37:50.143Z,96916.59
2022-09-23T15:40:27.547Z,96891.97
2022-09-23T15:42:58.329Z,96887.72
2022-09-23T15:45:38.907Z,96894.50
2022-09-23T15:48:07.268Z,96900.28
2022-09-23T15:50:34.940Z,96888.00
2022-09-23T15:53:01.606Z,96869.56
2022-09-23T15:55:28.318Z,96863.38
2022-09-23T15:57:54.941Z,96874.44
2022-09-23T16:00:21.536Z,96890.34
2022-09-23T16:02:48.910Z,96884.41
2022-09-23T16:05:28.609Z,96884.03
2022-09-23T16:07:55.524Z,96886.53
2022-09-23T16:10:23.085Z,96865.66
2022-09-23T16:12:49.797Z,96889.47
2022-09-23T16:15:18.115Z,96880.84
2022-09-23T16:17:44.764Z,96885.50
2022-09-23T16:20:12.406Z,96889.38
2022-09-23T16:22:39.019Z,96882.22
2022-09-23T16:25:06.237Z,96874.06
2022-09-23T16:27:33.136Z,96899.44
2022-09-23T16:29:59.859Z,96863.84
2022-09-23T16:32:26.595Z,96870.06
2022-09-23T16:34:53.222Z,96872.88
2022-09-23T16:37:19.799Z,96871.69
2022-09-23T16:39:48.110Z,96894.94
2022-09-23T16:42:14.763Z,96900.78
2022-09-23T16:44:41.434Z,96887.78
2022-09-23T16:47:08.194Z,96863.97
2022-09-23T16:49:35.103Z,96875.00
2022-09-23T16:52:01.827Z,96890.69
2022-09-23T16:54:29.058Z,96895.41
2022-09-23T16:56:55.703Z,96880.44
2022-09-23T16:59:22.328Z,96874.91
2022-09-23T17:01:49.037Z,96880.63
2022-09-23T17:04:16.462Z,96870.19
2022-09-23T17:06:46.050Z,96894.03
2022-09-23T17:09:12.550Z,96912.16
2022-09-23T17:11:40.003Z,96886.47
2022-09-23T17:14:06.567Z,96897.16
2022-09-23T17:16:33.683Z,96879.88
2022-09-23T17:19:01.206Z,96880.25
2022-09-23T17:21:27.943Z,96882.16
2022-09-23T17:23:54.783Z,96890.22
2022-09-23T17:26:21.977Z,96881.22
2022-09-23T17:28:49.424Z,96881.31
2022-09-23T17:31:16.097Z,96878.81
2022-09-23T17:33:42.804Z,96879.19
2022-09-23T17:36:10.696Z,96904.94
2022-09-23T17:38:37.350Z,96878.13
2022-09-23T17:41:03.953Z,96880.44
2022-09-23T17:43:30.610Z,96887.19
2022-09-23T17:46:03.355Z,96892.28
2022-09-23T17:48:30.753Z,96885.47
2022-09-23T17:50:57.736Z,96873.50
2022-09-23T17:53:24.376Z,96874.66
2022-09-23T17:55:55.565Z,96918.47
2022-09-23T17:58:26.921Z,96901.56
2022-09-23T18:00:54.547Z,96916.41
2022-09-23T18:03:21.378Z,96899.88
2022-09-23T18:05:47.854Z,96924.63
2022-09-23T18:08:14.399Z,96888.16
2022-09-23T18:10:41.010Z,96888.50
2022-09-23T18:13:07.489Z,96901.22
2022-09-23T18:15:37.832Z,96898.47
2022-09-23T18:18:04.994Z,96898.75
2022-09-23T18:20:31.666Z,96918.13
2022-09-23T18:22:58.702Z,96904.78
2022-09-23T18:25:38.583Z,96901.00
2022-09-23T18:28:05.914Z,96926.16
2022-09-23T18:30:32.420Z,96907.94
2022-09-23T18:32:59.408Z,96920.53
2022-09-23T18:35:26.182Z,96894.47
2022-09-23T18:37:53.054Z,96906.63
2022-09-23T18:40:19.641Z,96899.19
2022-09-23T18:42:46.200Z,96887.69
2022-09-23T18:45:12.787Z,96906.88
2022-09-23T18:47:42.958Z,96899.56
2022-09-23T18:50:12.499Z,96900.06
2022-09-23T18:52:39.019Z,96911.44
2022-09-23T18:55:05.770Z,96889.75
2022-09-23T18:57:32.409Z,96875.03
2022-09-23T18:59:59.293Z,96874.84
2022-09-23T19:02:26.827Z,96889.06
2022-09-23T19:04:53.475Z,96892.66
2022-09-23T19:07:20.280Z,96887.53
2022-09-23T19:09:46.800Z,96905.50
2022-09-23T19:12:13.379Z,96893.28
2022-09-23T19:14:39.896Z,96894.31
2022-09-23T19:17:06.470Z,96898.59
2022-09-23T19:19:33.140Z,96906.16
2022-09-23T19:21:59.689Z,96883.88
2022-09-23T19:24:26.226Z,96915.75
2022-09-23T19:26:52.766Z,96886.19
2022-09-23T19:29:19.439Z,96879.78
2022-09-23T19:31:46.238Z,96886.31
2022-09-23T19:34:14.396Z,96893.69
2022-09-23T19:36:42.526Z,96887.50
2022-09-23T19:39:19.264Z,96891.25
2022-09-23T19:41:46.104Z,96885.16
2022-09-23T19:44:12.818Z,96887.88
2022-09-23T19:46:40.819Z,96875.28
2022-09-23T19:49:07.507Z,96881.69
2022-09-23T19:51:35.710Z,96862.63
2022-09-23T19:54:03.321Z,96890.81
2022-09-23T19:56:31.116Z,96871.00
2022-09-23T19:58:58.420Z,96889.25
2022-09-23T20:01:25.903Z,96881.22
2022-09-23T20:03:52.682Z,96871.00
2022-09-23T20:06:19.790Z,96907.22
2022-09-23T20:08:46.692Z,96875.34
2022-09-23T20:11:14.024Z,96889.53
2022-09-23T20:13:41.124Z,96892.22
2022-09-23T20:16:08.122Z,96889.84
2022-09-23T20:18:36.526Z,96878.81
2022-09-23T20:21:04.119Z,96907.28
2022-09-23T20:23:30.769Z,96847.75
2022-09-23T20:25:58.140Z,96881.00
2022-09-23T20:28:24.758Z,96857.97
2022-09-23T20:30:51.519Z,96881.56
2022-09-23T20:33:18.121Z,96890.69
2022-09-23T20:35:44.711Z,96880.75
2022-09-23T20:38:11.354Z,96870.84
2022-09-23T20:40:38.023Z,96874.06
2022-09-23T20:43:04.975Z,96862.50
2022-09-23T20:45:31.637Z,96879.69
2022-09-23T20:47:58.270Z,96871.63
2022-09-23T20:50:24.913Z,96861.19
2022-09-23T20:52:52.083Z,96843.53
2022-09-23T20:55:20.834Z,96866.31
2022-09-23T20:57:47.924Z,96867.69
2022-09-23T21:00:14.993Z,96895.28
2022-09-23T21:02:43.354Z,96862.03
2022-09-23T21:05:09.922Z,96855.34
2022-09-23T21:07:36.728Z,96877.84
2022-09-23T21:10:03.567Z,96874.94
2022-09-23T21:12:30.204Z,96869.31
2022-09-23T21:14:56.995Z,96850.25
2022-09-23T21:17:23.691Z,96845.41
2022-09-23T21:19:50.498Z,96864.00
2022-09-23T21:22:17.241Z,96872.84
2022-09-23T21:25:25.607Z,96876.63
2022-09-23T21:27:30.397Z,96848.47
2022-09-23T21:29:57.318Z,96859.19
2022-09-23T21:32:23.924Z,96870.44
2022-09-23T21:34:50.483Z,96856.25
2022-09-23T21:37:17.005Z,96842.59
2022-09-23T21:39:43.903Z,96845.53
2022-09-23T21:42:10.744Z,96870.47
2022-09-23T21:44:37.540Z,96847.91
2022-09-23T21:47:04.141Z,96855.69
2022-09-23T21:49:30.749Z,96837.47
2022-09-23T21:51:57.382Z,96856.50
2022-09-23T21:54:24.503Z,96856.78
2022-09-23T21:56:51.122Z,96853.31
2022-09-23T21:59:17.804Z,96853.56
2022-09-23T22:01:44.964Z,96861.09
2022-09-23T22:04:15.935Z,96864.81
2022-09-23T22:06:42.690Z,96848.72
2022-09-23T22:09:12.017Z,96839.88
2022-09-23T22:11:38.689Z,96851.94
2022-09-23T22:14:06.491Z,96855.97
2022-09-23T22:16:33.383Z,96838.00
2022-09-23T22:19:00.112Z,96854.59
2022-09-23T22:21:29.982Z,96871.75
2022-09-23T22:23:57.975Z,96846.06
2022-09-23T22:26:25.469Z,96848.72
2022-09-23T22:28:52.393Z,96826.47
2022-09-23T22:31:19.199Z,96838.00
2022-09-23T22:33:45.784Z,96877.16
2022-09-23T22:36:12.398Z,96875.25
2022-09-23T22:38:38.923Z,96834.50
2022-09-23T22:41:05.754Z,96847.91
2022-09-23T22:43:32.846Z,96849.25
2022-09-23T22:45:59.500Z,96816.28
2022-09-23T22:48:26.203Z,96826.72
2022-09-23T22:50:52.860Z,96817.69
2022-09-23T22:53:19.535Z,96839.63
2022-09-23T22:55:46.263Z,96814.72
2022-09-23T22:58:31.222Z,96810.69
2022-09-23T23:00:59.327Z,96792.22
2022-09-23T23:03:25.995Z,96801.56
2022-09-23T23:05:59.613Z,96819.28
2022-09-23T23:08:26.186Z,96828.38
2022-09-23T23:10:52.860Z,96801.81
2022-09-23T23:13:19.988Z,96820.81
2022-09-23T23:15:46.669Z,96826.66
2022-09-23T23:18:13.315Z,96829.09
2022-09-23T23:20:40.246Z,96823.19
2022-09-23T23:23:06.746Z,96843.56
2022-09-23T23:25:33.300Z,96829.06
2022-09-23T23:27:59.947Z,96802.53
2022-09-23T23:30:27.415Z,96789.09
2022-09-23T23:32:53.953Z,96804.94
2022-09-23T23:35:20.582Z,96812.72
2022-09-23T23:37:47.199Z,96789.69
2022-09-23T23:40:14.039Z,96808.16
2022-09-23T23:42:40.679Z,96808.88
2022-09-23T23:45:07.911Z,96803.00
2022-09-23T23:47:34.571Z,96805.66
2022-09-23T23:50:01.156Z,96799.47
2022-09-23T23:52:27.733Z,96806.44
2022-09-23T23:54:54.351Z,96799.25
2022-09-23T23:57:20.942Z,96791.47
2022-09-23T23:59:47.600Z,96819.63
